createdAt,value
2023-05-06T00:01:08.964Z,3.10
2023-05-06T00:03:36.400Z,2.90
2023-05-06T00:06:06.318Z,3.40
2023-05-06T00:08:33.656Z,2.60
2023-05-06T00:11:01.108Z,2.40
2023-05-06T00:13:28.451Z,2.80
2023-05-06T00:15:55.879Z,2.83
2023-05-06T00:18:23.810Z,2.60
2023-05-06T00:20:51.151Z,2.57
2023-05-06T00:23:18.475Z,2.60
2023-05-06T00:25:45.859Z,2.47
2023-05-06T00:28:13.198Z,2.33
2023-05-06T00:30:40.524Z,2.73
2023-05-06T00:33:08.549Z,2.70
2023-05-06T00:35:36.062Z,2.53
2023-05-06T00:38:12.227Z,2.83
2023-05-06T00:40:39.729Z,2.60
2023-05-06T00:43:08.173Z,3.23
2023-05-06T00:45:37.346Z,3.00
2023-05-06T00:48:08.370Z,2.83
2023-05-06T00:50:36.303Z,2.80
2023-05-06T00:53:04.913Z,2.30
2023-05-06T00:55:32.364Z,2.90
2023-05-06T00:58:00.088Z,2.53
2023-05-06T01:00:27.603Z,2.67
2023-05-06T01:02:55.366Z,2.90
2023-05-06T01:05:24.568Z,2.83
2023-05-06T01:07:58.162Z,3.40
2023-05-06T01:10:28.590Z,3.30
2023-05-06T01:13:03.810Z,2.93
2023-05-06T01:15:39.114Z,3.30
2023-05-06T01:18:10.196Z,3.20
2023-05-06T01:20:38.936Z,3.03
2023-05-06T01:23:13.356Z,2.77
2023-05-06T01:25:40.839Z,2.67
2023-05-06T01:28:10.514Z,3.40
2023-05-06T01:30:53.255Z,3.23
2023-05-06T01:33:35.813Z,3.17
2023-05-06T01:36:14.062Z,2.97
2023-05-06T01:38:55.822Z,3.37
2023-05-06T01:41:24.050Z,3.07
2023-05-06T01:43:53.578Z,3.03
2023-05-06T01:46:22.496Z,3.20
2023-05-06T01:48:54.547Z,2.97
2023-05-06T01:51:23.942Z,2.87
2023-05-06T01:53:51.382Z,2.87
2023-05-06T01:56:18.858Z,2.70
2023-05-06T01:58:46.405Z,2.87
2023-05-06T02:01:15.454Z,2.93
2023-05-06T02:03:43.088Z,3.00
2023-05-06T02:06:10.997Z,3.00
2023-05-06T02:08:41.430Z,2.87
2023-05-06T02:11:12.239Z,3.23
2023-05-06T02:13:40.304Z,3.03
2023-05-06T02:16:09.358Z,3.70
2023-05-06T02:18:37.539Z,3.63
2023-05-06T02:21:05.134Z,3.40
2023-05-06T02:23:32.536Z,3.03
2023-05-06T02:26:00.106Z,3.30
2023-05-06T02:28:27.650Z,2.97
2023-05-06T02:30:58.761Z,3.33
2023-05-06T02:33:26.363Z,3.23
2023-05-06T02:35:53.750Z,3.10
2023-05-06T02:38:21.834Z,3.93
2023-05-06T02:40:49.228Z,3.57
2023-05-06T02:43:16.671Z,3.50
2023-05-06T02:45:44.278Z,3.27
2023-05-06T02:48:11.709Z,4.07
2023-05-06T02:50:39.052Z,3.40
2023-05-06T02:53:06.483Z,3.93
2023-05-06T02:55:34.297Z,3.40
2023-05-06T02:58:01.690Z,3.40
2023-05-06T03:00:29.151Z,3.23
2023-05-06T03:02:56.480Z,3.70
2023-05-06T03:05:23.840Z,3.90
2023-05-06T03:07:51.288Z,3.37
2023-05-06T03:10:18.884Z,2.93
2023-05-06T03:12:46.588Z,3.37
2023-05-06T03:15:13.918Z,3.40
2023-05-06T03:17:41.372Z,3.40
2023-05-06T03:20:09.633Z,3.53
2023-05-06T03:22:41.194Z,3.60
2023-05-06T03:25:09.353Z,3.73
2023-05-06T03:27:39.602Z,3.10
2023-05-06T03:30:14.826Z,3.73
2023-05-06T03:32:42.571Z,3.50
2023-05-06T03:35:13.039Z,3.70
2023-05-06T03:37:43.598Z,2.93
2023-05-06T03:40:11.066Z,3.60
2023-05-06T03:42:38.724Z,4.00
2023-05-06T03:45:07.260Z,3.50
2023-05-06T03:47:34.904Z,3.57
2023-05-06T03:50:03.810Z,3.53
2023-05-06T03:52:33.324Z,3.67
2023-05-06T03:55:01.502Z,3.80
2023-05-06T03:57:33.756Z,4.03
2023-05-06T04:00:01.277Z,3.50
2023-05-06T04:02:29.437Z,4.00
2023-05-06T04:04:58.262Z,3.50
2023-05-06T04:07:25.656Z,3.40
2023-05-06T04:09:53.073Z,3.90
2023-05-06T04:12:20.924Z,3.63
2023-05-06T04:14:49.208Z,3.30
2023-05-06T04:17:16.505Z,3.80
2023-05-06T04:19:44.984Z,3.97
2023-05-06T04:22:12.364Z,3.77
2023-05-06T04:24:41.732Z,3.60
2023-05-06T04:27:11.083Z,3.93
2023-05-06T04:29:38.807Z,3.50
2023-05-06T04:32:06.544Z,3.33
2023-05-06T04:34:36.882Z,3.60
2023-05-06T04:37:07.120Z,3.93
2023-05-06T04:40:04.550Z,3.53
2023-05-06T04:42:34.684Z,4.10
2023-05-06T04:45:09.761Z,3.50
2023-05-06T04:47:40.269Z,4.00
2023-05-06T04:50:09.529Z,3.47
2023-05-06T04:52:37.527Z,3.83
2023-05-06T04:55:05.768Z,3.30
2023-05-06T04:57:35.662Z,3.80
2023-05-06T05:00:04.201Z,4.27
2023-05-06T05:02:33.448Z,3.70
2023-05-06T05:05:00.963Z,3.50
2023-05-06T05:07:28.943Z,3.50
2023-05-06T05:09:56.488Z,4.07
2023-05-06T05:12:23.848Z,4.07
2023-05-06T05:14:53.193Z,4.07
2023-05-06T05:17:21.176Z,3.80
2023-05-06T05:19:50.352Z,3.90
2023-05-06T05:22:18.369Z,3.53
2023-05-06T05:24:45.815Z,3.63
2023-05-06T05:27:13.271Z,3.80
2023-05-06T05:29:41.321Z,4.53
2023-05-06T05:32:09.752Z,4.23
2023-05-06T05:34:37.197Z,3.43
2023-05-06T05:37:05.187Z,3.97
2023-05-06T05:39:34.102Z,3.93
2023-05-06T05:42:02.400Z,3.53
2023-05-06T05:44:30.476Z,3.63
2023-05-06T05:46:58.602Z,3.80
2023-05-06T05:49:26.309Z,3.10
2023-05-06T05:51:54.652Z,3.47
2023-05-06T05:54:22.666Z,3.70
2023-05-06T05:56:50.688Z,3.63
2023-05-06T05:59:18.262Z,3.60
2023-05-06T06:01:48.488Z,3.93
2023-05-06T06:04:16.125Z,4.60
2023-05-06T06:06:43.588Z,4.17
2023-05-06T06:09:11.375Z,4.00
2023-05-06T06:11:40.816Z,3.60
2023-05-06T06:14:09.488Z,3.93
2023-05-06T06:16:37.380Z,3.90
2023-05-06T06:19:05.151Z,5.37
2023-05-06T06:21:32.829Z,4.57
2023-05-06T06:24:01.333Z,4.17
2023-05-06T06:26:28.777Z,5.13
2023-05-06T06:28:56.157Z,4.17
2023-05-06T06:31:23.784Z,5.57
2023-05-06T06:33:51.197Z,5.00
2023-05-06T06:36:18.860Z,6.43
2023-05-06T06:38:46.285Z,4.20
2023-05-06T06:41:13.663Z,5.30
2023-05-06T06:43:40.971Z,6.40
2023-05-06T06:46:17.221Z,4.83
2023-05-06T06:48:44.850Z,4.87
2023-05-06T06:51:12.294Z,6.20
2023-05-06T06:53:39.842Z,6.60
2023-05-06T06:56:10.986Z,5.10
2023-05-06T06:58:38.790Z,4.47
2023-05-06T07:01:06.667Z,4.63
2023-05-06T07:03:34.066Z,4.70
2023-05-06T07:06:01.686Z,4.23
2023-05-06T07:08:29.187Z,4.83
2023-05-06T07:10:56.547Z,4.47
2023-05-06T07:13:24.060Z,5.33
2023-05-06T07:15:51.620Z,5.47
2023-05-06T07:18:19.416Z,4.60
2023-05-06T07:20:46.856Z,5.20
2023-05-06T07:23:14.245Z,4.30
2023-05-06T07:25:41.689Z,4.30
2023-05-06T07:28:09.212Z,4.43
2023-05-06T07:30:38.728Z,5.33
2023-05-06T07:33:06.485Z,4.57
2023-05-06T07:35:34.167Z,4.20
2023-05-06T07:38:01.608Z,4.17
2023-05-06T07:40:29.000Z,4.17
2023-05-06T07:42:56.542Z,3.10
2023-05-06T07:45:25.168Z,2.90
2023-05-06T07:47:52.783Z,3.83
2023-05-06T07:50:20.425Z,4.17
2023-05-06T07:52:47.735Z,4.20
2023-05-06T07:55:15.150Z,3.80
2023-05-06T07:57:42.539Z,4.00
2023-05-06T08:00:10.260Z,3.50
2023-05-06T08:02:45.574Z,3.80
2023-05-06T08:05:13.458Z,3.23
2023-05-06T08:07:41.550Z,3.60
2023-05-06T08:10:09.451Z,4.10
2023-05-06T08:12:37.450Z,3.27
2023-05-06T08:15:04.898Z,3.53
2023-05-06T08:17:32.839Z,2.73
2023-05-06T08:20:00.273Z,3.43
2023-05-06T08:22:27.632Z,3.60
2023-05-06T08:24:55.122Z,3.03
2023-05-06T08:27:22.443Z,2.93
2023-05-06T08:29:49.848Z,3.10
2023-05-06T08:32:17.152Z,2.50
2023-05-06T08:34:44.514Z,2.57
2023-05-06T08:37:11.925Z,2.70
2023-05-06T08:39:39.356Z,2.17
2023-05-06T08:42:06.858Z,2.83
2023-05-06T08:44:34.254Z,2.67
2023-05-06T08:47:01.816Z,2.70
2023-05-06T08:49:29.168Z,2.80
2023-05-06T08:51:57.219Z,2.33
2023-05-06T08:54:26.655Z,2.73
2023-05-06T08:56:57.209Z,1.60
2023-05-06T08:59:25.875Z,2.50
2023-05-06T09:01:53.681Z,1.70
2023-05-06T09:04:21.126Z,2.20
2023-05-06T09:06:48.424Z,2.43
2023-05-06T09:09:15.726Z,2.13
2023-05-06T09:11:43.097Z,2.70
2023-05-06T09:14:13.182Z,1.90
2023-05-06T09:16:42.206Z,2.07
2023-05-06T09:19:09.724Z,1.63
2023-05-06T09:21:38.593Z,1.73
2023-05-06T09:24:06.703Z,2.30
2023-05-06T09:26:35.178Z,1.67
2023-05-06T09:29:06.172Z,1.83
2023-05-06T09:31:33.854Z,2.17
2023-05-06T09:34:01.555Z,1.80
2023-05-06T09:36:29.136Z,1.57
2023-05-06T09:38:57.847Z,1.80
2023-05-06T09:41:25.796Z,2.17
2023-05-06T09:43:54.372Z,1.67
2023-05-06T09:46:22.454Z,1.50
2023-05-06T09:48:53.488Z,1.40
2023-05-06T09:51:21.538Z,1.83
2023-05-06T09:53:49.150Z,1.17
2023-05-06T09:56:16.892Z,1.57
2023-05-06T09:58:45.293Z,1.63
2023-05-06T10:01:19.291Z,1.80
2023-05-06T10:03:51.794Z,1.70
2023-05-06T10:06:20.385Z,2.10
2023-05-06T10:08:49.000Z,1.73
2023-05-06T10:11:16.651Z,1.57
2023-05-06T10:13:45.182Z,2.10
2023-05-06T10:16:14.618Z,1.90
2023-05-06T10:18:45.324Z,2.60
2023-05-06T10:21:17.334Z,2.10
2023-05-06T10:23:45.413Z,2.20
2023-05-06T10:26:13.565Z,2.70
2023-05-06T10:28:42.303Z,2.33
2023-05-06T10:31:13.917Z,2.80
2023-05-06T10:33:42.777Z,2.30
2023-05-06T10:36:21.360Z,2.37
2023-05-06T10:38:56.485Z,2.43
2023-05-06T10:41:26.091Z,2.07
2023-05-06T10:43:57.054Z,1.93
2023-05-06T10:46:26.491Z,2.10
2023-05-06T10:49:06.287Z,2.30
2023-05-06T10:51:39.564Z,2.47
2023-05-06T10:54:19.012Z,2.87
2023-05-06T10:56:49.750Z,2.83
2023-05-06T10:59:21.721Z,2.30
2023-05-06T11:01:56.262Z,3.40
2023-05-06T11:04:23.759Z,2.50
2023-05-06T11:06:52.190Z,3.03
2023-05-06T11:09:23.285Z,3.90
2023-05-06T11:11:56.968Z,2.00
2023-05-06T11:14:42.487Z,3.13
2023-05-06T11:17:11.051Z,2.67
2023-05-06T11:19:38.939Z,3.30
2023-05-06T11:22:07.155Z,2.80
2023-05-06T11:24:42.069Z,3.13
2023-05-06T11:27:10.387Z,2.67
2023-05-06T11:29:38.047Z,3.00
2023-05-06T11:32:24.362Z,2.03
2023-05-06T11:34:55.609Z,2.37
2023-05-06T11:37:29.929Z,2.00
2023-05-06T11:39:57.340Z,3.20
2023-05-06T11:42:25.845Z,2.73
2023-05-06T11:44:56.750Z,2.20
2023-05-06T11:47:24.642Z,2.73
2023-05-06T11:49:54.054Z,1.93
2023-05-06T11:52:21.512Z,2.73
2023-05-06T11:54:50.168Z,2.30
2023-05-06T11:57:17.750Z,3.00
2023-05-06T11:59:45.033Z,1.73
2023-05-06T12:02:13.930Z,2.37
2023-05-06T12:04:50.183Z,2.70
2023-05-06T12:07:17.858Z,2.30
2023-05-06T12:09:47.301Z,2.10
2023-05-06T12:12:19.795Z,2.10
2023-05-06T12:14:47.673Z,2.87
2023-05-06T12:17:15.580Z,2.50
2023-05-06T12:19:43.260Z,2.17
2023-05-06T12:22:18.225Z,2.43
2023-05-06T12:24:46.264Z,3.20
2023-05-06T12:27:13.800Z,2.50
2023-05-06T12:29:41.349Z,3.30
2023-05-06T12:32:12.341Z,3.20
2023-05-06T12:34:40.470Z,2.80
2023-05-06T12:37:11.553Z,2.20
2023-05-06T12:39:39.683Z,2.93
2023-05-06T12:42:07.297Z,2.33
2023-05-06T12:44:34.786Z,2.37
2023-05-06T12:47:02.979Z,2.50
2023-05-06T12:49:49.922Z,1.90
2023-05-06T12:52:18.065Z,2.23
2023-05-06T12:54:46.726Z,2.37
2023-05-06T12:57:14.266Z,2.70
2023-05-06T12:59:41.649Z,3.07
2023-05-06T13:02:09.112Z,2.83
2023-05-06T13:04:36.474Z,3.97
2023-05-06T13:07:04.007Z,2.40
2023-05-06T13:09:31.607Z,3.70
2023-05-06T13:11:59.373Z,2.00
2023-05-06T13:14:27.369Z,3.93
2023-05-06T13:16:54.793Z,3.50
2023-05-06T13:19:32.296Z,2.53
2023-05-06T13:22:00.857Z,3.00
2023-05-06T13:24:28.796Z,3.13
2023-05-06T13:26:57.024Z,3.63
2023-05-06T13:29:24.890Z,2.57
2023-05-06T13:31:52.485Z,3.10
2023-05-06T13:34:19.900Z,3.53
2023-05-06T13:36:49.294Z,2.63
2023-05-06T13:39:16.637Z,2.70
2023-05-06T13:41:46.660Z,2.30
2023-05-06T13:44:14.068Z,2.63
2023-05-06T13:46:42.139Z,2.53
2023-05-06T13:49:10.867Z,2.83
2023-05-06T13:51:38.271Z,2.63
2023-05-06T13:54:06.039Z,2.90
2023-05-06T13:56:33.753Z,3.60
2023-05-06T13:59:01.163Z,3.20
2023-05-06T14:01:28.839Z,2.30
2023-05-06T14:03:56.268Z,2.30
2023-05-06T14:06:23.622Z,3.60
2023-05-06T14:08:50.978Z,2.40
2023-05-06T14:11:18.314Z,2.20
2023-05-06T14:13:45.716Z,1.87
2023-05-06T14:16:15.807Z,2.30
2023-05-06T14:18:43.423Z,2.20
2023-05-06T14:21:10.774Z,2.17
2023-05-06T14:23:38.133Z,2.33
2023-05-06T14:26:05.551Z,2.63
2023-05-06T14:28:32.814Z,1.70
2023-05-06T14:31:00.214Z,1.60
2023-05-06T14:33:27.495Z,1.90
2023-05-06T14:35:54.862Z,2.00
2023-05-06T14:38:22.204Z,2.93
2023-05-06T14:40:50.781Z,2.23
2023-05-06T14:43:18.313Z,2.13
2023-05-06T14:45:45.728Z,1.67
2023-05-06T14:48:13.085Z,1.83
2023-05-06T14:50:41.170Z,1.57
2023-05-06T14:53:08.554Z,1.53
2023-05-06T14:55:35.969Z,1.70
2023-05-06T14:58:03.595Z,1.70
2023-05-06T15:00:31.093Z,3.50
2023-05-06T15:02:59.327Z,2.23
2023-05-06T15:05:27.028Z,2.60
2023-05-06T15:07:54.302Z,2.17
2023-05-06T15:10:22.996Z,2.53
2023-05-06T15:12:50.409Z,2.53
2023-05-06T15:15:17.729Z,1.87
2023-05-06T15:17:45.130Z,2.03
2023-05-06T15:20:14.181Z,2.10
2023-05-06T15:22:41.555Z,2.23
2023-05-06T15:25:12.404Z,1.70
2023-05-06T15:27:44.154Z,1.90
2023-05-06T15:30:11.707Z,2.17
2023-05-06T15:32:39.188Z,1.80
2023-05-06T15:35:06.756Z,2.00
2023-05-06T15:37:34.399Z,1.70
2023-05-06T15:40:02.258Z,1.80
2023-05-06T15:42:30.416Z,1.80
2023-05-06T15:44:58.477Z,1.97
2023-05-06T15:47:25.904Z,3.13
2023-05-06T15:49:54.983Z,2.27
2023-05-06T15:52:23.086Z,2.93
2023-05-06T15:54:50.458Z,2.50
2023-05-06T15:57:18.023Z,3.20
2023-05-06T15:59:45.502Z,4.70
2023-05-06T16:02:26.683Z,5.13
2023-05-06T16:04:55.004Z,4.03
2023-05-06T16:07:22.681Z,4.13
2023-05-06T16:09:50.383Z,3.70
2023-05-06T16:12:17.689Z,3.77
2023-05-06T16:14:45.237Z,4.37
2023-05-06T16:17:12.546Z,6.00
2023-05-06T16:19:39.882Z,3.73
2023-05-06T16:22:07.210Z,4.20
2023-05-06T16:24:34.612Z,4.60
2023-05-06T16:27:02.423Z,5.43
2023-05-06T16:29:29.829Z,4.87
2023-05-06T16:31:58.318Z,4.20
2023-05-06T16:34:25.870Z,3.83
2023-05-06T16:36:53.952Z,4.00
2023-05-06T16:39:21.261Z,4.20
2023-05-06T16:41:48.679Z,3.80
2023-05-06T16:44:16.030Z,3.80
2023-05-06T16:46:43.378Z,3.27
2023-05-06T16:49:10.791Z,3.77
2023-05-06T16:51:38.187Z,4.03
2023-05-06T16:54:05.576Z,3.03
2023-05-06T16:56:43.863Z,3.30
2023-05-06T16:59:22.423Z,2.87
2023-05-06T17:01:50.354Z,2.90
2023-05-06T17:04:17.765Z,3.10
2023-05-06T17:06:45.173Z,3.13
2023-05-06T17:09:12.445Z,2.90
2023-05-06T17:11:39.830Z,2.80
2023-05-06T17:14:07.178Z,2.43
2023-05-06T17:16:34.814Z,3.17
2023-05-06T17:19:02.336Z,2.80
2023-05-06T17:21:29.627Z,2.33
2023-05-06T17:23:56.926Z,2.80
2023-05-06T17:26:24.395Z,2.67
2023-05-06T17:28:51.725Z,2.37
2023-05-06T17:31:19.240Z,2.40
2023-05-06T17:33:47.072Z,2.40
2023-05-06T17:36:16.028Z,2.53
2023-05-06T17:38:44.465Z,2.30
2023-05-06T17:41:12.069Z,2.50
2023-05-06T17:43:39.448Z,2.33
2023-05-06T17:46:09.322Z,2.23
2023-05-06T17:48:36.779Z,2.37
2023-05-06T17:51:04.301Z,2.17
2023-05-06T17:53:34.060Z,2.57
2023-05-06T17:56:01.415Z,2.33
2023-05-06T17:58:28.972Z,2.57
2023-05-06T18:00:57.415Z,2.57
2023-05-06T18:03:25.015Z,2.50
2023-05-06T18:05:52.507Z,2.63
2023-05-06T18:08:19.856Z,2.70
2023-05-06T18:10:47.268Z,2.33
2023-05-06T18:13:14.707Z,2.40
2023-05-06T18:15:51.139Z,2.23
2023-05-06T18:18:18.507Z,2.60
2023-05-06T18:20:45.892Z,2.60
2023-05-06T18:23:13.330Z,2.63
2023-05-06T18:25:40.770Z,2.57
2023-05-06T18:28:11.305Z,2.80
2023-05-06T18:30:38.794Z,2.93
2023-05-06T18:33:06.346Z,2.77
2023-05-06T18:35:33.729Z,2.50
2023-05-06T18:38:01.063Z,2.80
2023-05-06T18:40:28.437Z,2.70
2023-05-06T18:42:56.596Z,2.70
2023-05-06T18:45:24.506Z,2.90
2023-05-06T18:47:51.913Z,2.70
2023-05-06T18:50:19.255Z,2.60
2023-05-06T18:52:46.704Z,2.63
2023-05-06T18:55:14.344Z,2.97
2023-05-06T18:57:41.841Z,2.80
2023-05-06T19:00:09.388Z,2.13
2023-05-06T19:02:37.842Z,2.27
2023-05-06T19:05:06.251Z,2.50
2023-05-06T19:07:33.513Z,2.37
2023-05-06T19:10:00.814Z,2.70
2023-05-06T19:12:28.088Z,2.40
2023-05-06T19:14:55.457Z,2.20
2023-05-06T19:17:23.691Z,2.50
2023-05-06T19:19:51.260Z,2.63
2023-05-06T19:22:18.663Z,2.17
2023-05-06T19:24:46.121Z,2.77
2023-05-06T19:27:13.454Z,2.20
2023-05-06T19:29:43.804Z,2.60
2023-05-06T19:32:11.148Z,2.70
2023-05-06T19:34:38.664Z,2.77
2023-05-06T19:37:06.052Z,2.50
2023-05-06T19:39:33.418Z,2.23
2023-05-06T19:42:00.976Z,2.60
2023-05-06T19:44:28.342Z,2.20
2023-05-06T19:46:55.671Z,2.40
2023-05-06T19:49:23.224Z,2.63
2023-05-06T19:51:50.740Z,2.70
2023-05-06T19:54:19.735Z,2.57
2023-05-06T19:56:47.057Z,2.50
2023-05-06T19:59:14.471Z,2.57
2023-05-06T20:01:42.168Z,3.10
2023-05-06T20:04:10.415Z,2.93
2023-05-06T20:06:37.723Z,2.77
2023-05-06T20:09:05.339Z,2.60
2023-05-06T20:11:32.919Z,2.73
2023-05-06T20:14:00.385Z,2.63
2023-05-06T20:16:28.105Z,2.60
2023-05-06T20:18:55.634Z,2.70
2023-05-06T20:21:23.088Z,3.17
2023-05-06T20:23:50.493Z,2.77
2023-05-06T20:26:18.587Z,2.70
2023-05-06T20:28:46.036Z,2.87
2023-05-06T20:31:13.468Z,3.20
2023-05-06T20:33:40.909Z,3.00
2023-05-06T20:36:08.308Z,3.20
2023-05-06T20:38:35.639Z,3.23
2023-05-06T20:41:03.087Z,3.77
2023-05-06T20:43:30.608Z,3.50
2023-05-06T20:45:58.058Z,3.40
2023-05-06T20:48:27.652Z,3.70
2023-05-06T20:50:56.974Z,4.03
2023-05-06T20:53:24.456Z,3.53
2023-05-06T20:55:51.953Z,4.07
2023-05-06T20:58:19.389Z,4.43
2023-05-06T21:00:46.796Z,3.30
2023-05-06T21:03:14.519Z,3.63
2023-05-06T21:05:41.980Z,4.33
2023-05-06T21:08:09.349Z,3.77
2023-05-06T21:10:36.892Z,3.53
2023-05-06T21:13:04.789Z,4.00
2023-05-06T21:15:32.596Z,3.47
2023-05-06T21:18:00.036Z,3.40
2023-05-06T21:20:27.511Z,3.13
2023-05-06T21:22:54.973Z,3.53
2023-05-06T21:25:22.478Z,3.57
2023-05-06T21:27:49.968Z,3.70
2023-05-06T21:30:18.322Z,3.70
2023-05-06T21:32:46.537Z,3.43
2023-05-06T21:35:13.930Z,4.23
2023-05-06T21:37:41.268Z,3.57
2023-05-06T21:40:08.947Z,3.60
2023-05-06T21:42:36.252Z,3.63
2023-05-06T21:45:03.690Z,3.57
2023-05-06T21:47:32.776Z,3.57
2023-05-06T21:50:00.270Z,3.27
2023-05-06T21:52:27.713Z,3.70
2023-05-06T21:54:56.290Z,3.07
2023-05-06T21:57:23.759Z,3.03
2023-05-06T21:59:52.077Z,3.50
2023-05-06T22:02:19.483Z,3.53
2023-05-06T22:04:46.915Z,3.80
2023-05-06T22:07:14.288Z,3.60
2023-05-06T22:09:41.621Z,3.27
2023-05-06T22:12:11.558Z,3.23
2023-05-06T22:14:41.428Z,3.50
2023-05-06T22:17:10.365Z,3.47
2023-05-06T22:19:38.497Z,3.30
2023-05-06T22:22:06.492Z,3.80
2023-05-06T22:24:34.143Z,3.37
2023-05-06T22:27:01.755Z,3.60
2023-05-06T22:29:29.407Z,3.27
2023-05-06T22:31:56.865Z,3.77
2023-05-06T22:34:24.291Z,3.63
2023-05-06T22:36:51.571Z,3.77
2023-05-06T22:39:18.937Z,3.53
2023-05-06T22:41:48.376Z,3.70
2023-05-06T22:44:15.818Z,3.80
2023-05-06T22:46:43.339Z,3.80
2023-05-06T22:49:10.647Z,3.83
2023-05-06T22:51:37.951Z,3.73
2023-05-06T22:54:05.388Z,3.30
2023-05-06T22:56:32.727Z,3.93
2023-05-06T22:59:00.142Z,3.80
2023-05-06T23:01:32.124Z,3.90
2023-05-06T23:04:00.321Z,3.40
2023-05-06T23:06:28.422Z,3.87
2023-05-06T23:08:55.763Z,3.50
2023-05-06T23:11:23.171Z,3.47
2023-05-06T23:13:50.620Z,3.93
2023-05-06T23:16:17.989Z,4.30
2023-05-06T23:18:46.223Z,4.40
2023-05-06T23:21:13.574Z,3.70
2023-05-06T23:23:41.011Z,3.73
2023-05-06T23:26:08.345Z,4.13
2023-05-06T23:28:35.818Z,3.63
2023-05-06T23:31:03.125Z,3.63
2023-05-06T23:33:30.452Z,4.13
2023-05-06T23:36:00.633Z,3.83
2023-05-06T23:38:27.898Z,3.77
2023-05-06T23:40:55.957Z,4.33
2023-05-06T23:43:23.277Z,3.87
2023-05-06T23:45:50.863Z,3.80
2023-05-06T23:48:18.199Z,3.50
2023-05-06T23:50:45.749Z,3.57
2023-05-06T23:53:13.036Z,3.80
2023-05-06T23:55:42.759Z,3.80
2023-05-06T23:58:10.415Z,4.13
